Everly, IA (51338)

6:06 AM CDT on May 27, 2015 (GMT -0500)
Spencer Municipal | | Change Station
CLOSE
Current Station
Airport
Location: Spencer,
Elevation: 1339 ft
Nearby Weather Stations

Elev 1339 ft 43.17 °N, 95.20 °W | Updated 13 minutes ago

Partly Cloudy
Partly Cloudy
52 °F
Feels Like 52 °F
N
5
Wind Variable Wind from SSW

Today
High -- | Low -- °F
--% Chance of Precip.
Yesterday
High -- | Low -- °F
Precip. -- in
5:47 AM 8:49 PM
Waxing Gibbous, 66% visible
Pressure 29.96 in
Visibility 4.0 miles
Clouds Clear
Dew Point 50 °F
Humidity 93%
Rainfall 0.00 in
Snow Depth Not available.
UV 0 out of 12
Pollen 5.10 out of 12
Air Quality Not available.
Flu Activity Sporadic
METAR KSPW 271053Z AUTO 21004KT 4SM BR CLR 11/10 A2996 RMK AO2 SLP146 T01110100 TSNO

More Conditions Fewer Conditions

Pressure 29.96 in
Visibility 4.0 miles
Clouds Clear
Dew Point 50 °F
Humidity 93%
Rainfall 0.00 in
Snow Depth Not available.
UV 0 out of 12
Pollen 5.10 out of 12
Air Quality Not available.
Flu Activity Sporadic
METAR KSPW 271053Z AUTO 21004KT 4SM BR CLR 11/10 A2996 RMK AO2 SLP146 T01110100 TSNO

More Conditions Fewer Conditions

10-Day Weather Forecast

Almanac

Astronomy

May. 27, 2015 Rise Set
Actual Time
Civil Twilight
Nautical Twilight
Astronomical Twilight
Moon
Length of Visible Light
Length of Day
Tomorrow will be .
, % of the Moon is Illuminated

Today's Extremes

State Highs State Lows

Community

WunderPhotos

Upload Photos

1,824,637 photos uploaded!

WunderBlogs® & News

Nearby

Air Quality

  Air Quality AQ Index Pollutant
Not available.

Snow Depth

Station Depth Elevation

Earthquake Activity

City Distance Mag. Time & Date
Minimum magnitude displayed is 2.5.

Coastal Water Temperatures

Place Temperature

Stations

Nearby Weather Stations

Station Location Temp. Windchill Dew Point Humidity Wind Precip. Elev Updated Type